sensor_id;sensor_type;location;lat;lon;timestamp;temperature;humidity
22185;DHT22;11258;52.516;13.318;2023-03-31T00:00:32;11.50;99.90
22185;DHT22;11258;52.516;13.318;2023-03-31T00:02:57;11.60;99.90
22185;DHT22;11258;52.516;13.318;2023-03-31T00:05:26;11.50;99.90
22185;DHT22;11258;52.516;13.318;2023-03-31T00:07:56;11.50;99.90
22185;DHT22;11258;52.516;13.318;2023-03-31T00:10:32;11.50;99.90
22185;DHT22;11258;52.516;13.318;2023-03-31T00:12:58;11.50;99.90
22185;DHT22;11258;52.516;13.318;2023-03-31T00:15:24;11.50;99.90
22185;DHT22;11258;52.516;13.318;2023-03-31T00:17:50;11.60;99.90
22185;DHT22;11258;52.516;13.318;2023-03-31T00:20:16;11.60;99.90
22185;DHT22;11258;52.516;13.318;2023-03-31T00:22:42;11.50;99.90
22185;DHT22;11258;52.516;13.318;2023-03-31T00:25:14;11.60;99.90
22185;DHT22;11258;52.516;13.318;2023-03-31T00:27:45;11.50;99.90
22185;DHT22;11258;52.516;13.318;2023-03-31T00:30:12;11.60;99.90
22185;DHT22;11258;52.516;13.318;2023-03-31T00:32:38;11.50;99.90
22185;DHT22;11258;52.516;13.318;2023-03-31T00:35:04;11.60;99.90
22185;DHT22;11258;52.516;13.318;2023-03-31T00:37:30;11.60;99.90
22185;DHT22;11258;52.516;13.318;2023-03-31T00:39:58;11.50;99.90
22185;DHT22;11258;52.516;13.318;2023-03-31T00:42:24;11.60;99.90
22185;DHT22;11258;52.516;13.318;2023-03-31T00:48:00;11.50;99.90
22185;DHT22;11258;52.516;13.318;2023-03-31T00:50:40;11.50;99.90
22185;DHT22;11258;52.516;13.318;2023-03-31T00:53:18;11.50;99.90
22185;DHT22;11258;52.516;13.318;2023-03-31T00:55:53;11.50;99.90
22185;DHT22;11258;52.516;13.318;2023-03-31T00:58:21;11.50;99.90
22185;DHT22;11258;52.516;13.318;2023-03-31T01:00:54;11.50;99.90
22185;DHT22;11258;52.516;13.318;2023-03-31T01:03:21;11.50;99.90
22185;DHT22;11258;52.516;13.318;2023-03-31T01:08:15;11.50;99.90
22185;DHT22;11258;52.516;13.318;2023-03-31T01:10:52;11.40;99.90
22185;DHT22;11258;52.516;13.318;2023-03-31T01:13:19;11.40;99.90
22185;DHT22;11258;52.516;13.318;2023-03-31T01:15:46;11.30;99.90
22185;DHT22;11258;52.516;13.318;2023-03-31T01:18:13;11.30;99.90
22185;DHT22;11258;52.516;13.318;2023-03-31T01:32:42;11.10;99.90
22185;DHT22;11258;52.516;13.318;2023-03-31T01:35:38;11.10;99.90
22185;DHT22;11258;52.516;13.318;2023-03-31T01:38:28;11.00;99.90
22185;DHT22;11258;52.516;13.318;2023-03-31T01:44:13;11.00;99.90
22185;DHT22;11258;52.516;13.318;2023-03-31T01:46:50;11.00;99.90
22185;DHT22;11258;52.516;13.318;2023-03-31T01:49:26;11.00;99.90
22185;DHT22;11258;52.516;13.318;2023-03-31T01:54:51;11.00;99.90
22185;DHT22;11258;52.516;13.318;2023-03-31T01:57:21;11.00;99.90
22185;DHT22;11258;52.516;13.318;2023-03-31T02:02:27;11.00;99.90
22185;DHT22;11258;52.516;13.318;2023-03-31T02:05:08;11.00;99.90
22185;DHT22;11258;52.516;13.318;2023-03-31T02:07:42;11.00;99.90
22185;DHT22;11258;52.516;13.318;2023-03-31T02:10:10;11.00;99.90
22185;DHT22;11258;52.516;13.318;2023-03-31T02:12:39;11.00;99.90
22185;DHT22;11258;52.516;13.318;2023-03-31T02:15:10;11.00;99.90
22185;DHT22;11258;52.516;13.318;2023-03-31T02:17:37;11.00;99.90
22185;DHT22;11258;52.516;13.318;2023-03-31T02:20:12;11.00;99.90
22185;DHT22;11258;52.516;13.318;2023-03-31T02:22:42;11.00;99.90
22185;DHT22;11258;52.516;13.318;2023-03-31T02:25:13;10.90;99.90
22185;DHT22;11258;52.516;13.318;2023-03-31T02:27:46;11.00;99.90
22185;DHT22;11258;52.516;13.318;2023-03-31T02:30:14;11.00;99.90
22185;DHT22;11258;52.516;13.318;2023-03-31T02:32:42;11.00;99.90
22185;DHT22;11258;52.516;13.318;2023-03-31T02:35:15;11.00;99.90
22185;DHT22;11258;52.516;13.318;2023-03-31T02:37:42;11.00;99.90
22185;DHT22;11258;52.516;13.318;2023-03-31T02:40:16;11.00;99.90
22185;DHT22;11258;52.516;13.318;2023-03-31T02:42:42;11.00;99.90
22185;DHT22;11258;52.516;13.318;2023-03-31T02:48:02;11.10;99.90
22185;DHT22;11258;52.516;13.318;2023-03-31T02:50:37;11.10;99.90
22185;DHT22;11258;52.516;13.318;2023-03-31T03:01:40;11.10;99.90
22185;DHT22;11258;52.516;13.318;2023-03-31T03:04:36;11.10;99.90
22185;DHT22;11258;52.516;13.318;2023-03-31T03:07:14;11.00;99.90
22185;DHT22;11258;52.516;13.318;2023-03-31T03:12:21;11.10;99.90
22185;DHT22;11258;52.516;13.318;2023-03-31T03:15:06;11.10;99.90
22185;DHT22;11258;52.516;13.318;2023-03-31T03:17:45;11.10;99.90
22185;DHT22;11258;52.516;13.318;2023-03-31T03:20:12;11.10;99.90
22185;DHT22;11258;52.516;13.318;2023-03-31T03:22:41;11.10;99.90
22185;DHT22;11258;52.516;13.318;2023-03-31T03:25:09;11.10;99.90
22185;DHT22;11258;52.516;13.318;2023-03-31T03:27:36;11.10;99.90
22185;DHT22;11258;52.516;13.318;2023-03-31T03:30:04;11.10;99.90
22185;DHT22;11258;52.516;13.318;2023-03-31T03:32:31;11.10;99.90
22185;DHT22;11258;52.516;13.318;2023-03-31T03:34:58;11.20;99.90
22185;DHT22;11258;52.516;13.318;2023-03-31T03:37:24;11.20;99.90
22185;DHT22;11258;52.516;13.318;2023-03-31T03:39:50;11.20;99.90
22185;DHT22;11258;52.516;13.318;2023-03-31T03:42:15;11.10;99.90
22185;DHT22;11258;52.516;13.318;2023-03-31T03:44:41;11.10;99.90
22185;DHT22;11258;52.516;13.318;2023-03-31T03:47:07;11.10;99.90
22185;DHT22;11258;52.516;13.318;2023-03-31T03:49:32;11.10;99.90
22185;DHT22;11258;52.516;13.318;2023-03-31T03:51:58;11.10;99.90
22185;DHT22;11258;52.516;13.318;2023-03-31T03:54:24;11.10;99.90
22185;DHT22;11258;52.516;13.318;2023-03-31T03:56:49;11.10;99.90
22185;DHT22;11258;52.516;13.318;2023-03-31T03:59:15;11.10;99.90
22185;DHT22;11258;52.516;13.318;2023-03-31T04:01:41;11.10;99.90
22185;DHT22;11258;52.516;13.318;2023-03-31T04:04:06;11.10;99.90
22185;DHT22;11258;52.516;13.318;2023-03-31T04:06:33;11.10;99.90
22185;DHT22;11258;52.516;13.318;2023-03-31T04:08:58;11.10;99.90
22185;DHT22;11258;52.516;13.318;2023-03-31T04:11:24;11.10;99.90
22185;DHT22;11258;52.516;13.318;2023-03-31T04:13:50;11.10;99.90
22185;DHT22;11258;52.516;13.318;2023-03-31T04:16:16;11.10;99.90
22185;DHT22;11258;52.516;13.318;2023-03-31T04:18:42;11.10;99.90
22185;DHT22;11258;52.516;13.318;2023-03-31T04:21:14;11.10;99.90
22185;DHT22;11258;52.516;13.318;2023-03-31T04:23:51;11.10;99.90
22185;DHT22;11258;52.516;13.318;2023-03-31T04:26:24;11.10;99.90
22185;DHT22;11258;52.516;13.318;2023-03-31T04:28:58;11.10;99.90
22185;DHT22;11258;52.516;13.318;2023-03-31T04:31:25;11.10;99.90
22185;DHT22;11258;52.516;13.318;2023-03-31T04:33:52;11.10;99.90
22185;DHT22;11258;52.516;13.318;2023-03-31T04:36:18;11.00;99.90
22185;DHT22;11258;52.516;13.318;2023-03-31T04:38:46;11.10;99.90
22185;DHT22;11258;52.516;13.318;2023-03-31T04:41:13;11.10;99.90
22185;DHT22;11258;52.516;13.318;2023-03-31T04:43:38;11.00;99.90
22185;DHT22;11258;52.516;13.318;2023-03-31T04:46:04;11.00;99.90
22185;DHT22;11258;52.516;13.318;2023-03-31T04:48:30;11.10;99.90
22185;DHT22;11258;52.516;13.318;2023-03-31T04:50:55;11.00;99.90
22185;DHT22;11258;52.516;13.318;2023-03-31T04:53:21;11.00;99.90
22185;DHT22;11258;52.516;13.318;2023-03-31T04:55:48;11.10;99.90
22185;DHT22;11258;52.516;13.318;2023-03-31T04:58:14;11.00;99.90
22185;DHT22;11258;52.516;13.318;2023-03-31T05:00:39;11.10;99.90
22185;DHT22;11258;52.516;13.318;2023-03-31T05:03:05;11.10;99.90
22185;DHT22;11258;52.516;13.318;2023-03-31T05:05:31;11.00;99.90
22185;DHT22;11258;52.516;13.318;2023-03-31T05:07:57;11.00;99.90
22185;DHT22;11258;52.516;13.318;2023-03-31T05:10:23;11.00;99.90
22185;DHT22;11258;52.516;13.318;2023-03-31T05:12:48;11.10;99.90
22185;DHT22;11258;52.516;13.318;2023-03-31T05:15:14;11.10;99.90
22185;DHT22;11258;52.516;13.318;2023-03-31T05:17:39;11.10;99.90
22185;DHT22;11258;52.516;13.318;2023-03-31T05:20:06;11.10;99.90
22185;DHT22;11258;52.516;13.318;2023-03-31T05:22:37;11.10;99.90
22185;DHT22;11258;52.516;13.318;2023-03-31T05:25:04;11.10;99.90
22185;DHT22;11258;52.516;13.318;2023-03-31T05:27:31;11.10;99.90
22185;DHT22;11258;52.516;13.318;2023-03-31T05:29:57;11.10;99.90
22185;DHT22;11258;52.516;13.318;2023-03-31T05:32:23;11.20;99.90
22185;DHT22;11258;52.516;13.318;2023-03-31T05:34:49;11.30;99.90
22185;DHT22;11258;52.516;13.318;2023-03-31T05:37:17;11.50;99.90
22185;DHT22;11258;52.516;13.318;2023-03-31T05:39:44;12.10;99.90
22185;DHT22;11258;52.516;13.318;2023-03-31T05:42:10;12.90;99.90
22185;DHT22;11258;52.516;13.318;2023-03-31T05:44:35;14.00;99.90
22185;DHT22;11258;52.516;13.318;2023-03-31T05:47:01;14.40;99.90
22185;DHT22;11258;52.516;13.318;2023-03-31T05:49:27;14.90;99.90
22185;DHT22;11258;52.516;13.318;2023-03-31T05:51:52;15.30;99.90
22185;DHT22;11258;52.516;13.318;2023-03-31T05:54:18;15.50;99.90
22185;DHT22;11258;52.516;13.318;2023-03-31T05:56:44;15.30;99.90
22185;DHT22;11258;52.516;13.318;2023-03-31T05:59:09;14.80;99.90
22185;DHT22;11258;52.516;13.318;2023-03-31T06:01:35;14.30;99.90
22185;DHT22;11258;52.516;13.318;2023-03-31T06:04:01;14.20;99.90
22185;DHT22;11258;52.516;13.318;2023-03-31T06:06:26;14.40;99.90
22185;DHT22;11258;52.516;13.318;2023-03-31T06:08:52;14.20;99.90
22185;DHT22;11258;52.516;13.318;2023-03-31T06:11:20;13.30;99.90
22185;DHT22;11258;52.516;13.318;2023-03-31T06:13:46;13.00;99.90
22185;DHT22;11258;52.516;13.318;2023-03-31T06:16:13;12.70;99.90
22185;DHT22;11258;52.516;13.318;2023-03-31T06:18:39;12.70;99.90
22185;DHT22;11258;52.516;13.318;2023-03-31T06:21:06;12.90;99.90
22185;DHT22;11258;52.516;13.318;2023-03-31T06:23:32;13.70;99.90
22185;DHT22;11258;52.516;13.318;2023-03-31T06:26:01;14.90;99.90
22185;DHT22;11258;52.516;13.318;2023-03-31T06:28:28;16.00;99.90
22185;DHT22;11258;52.516;13.318;2023-03-31T06:31:06;16.80;99.90
22185;DHT22;11258;52.516;13.318;2023-03-31T06:33:33;17.10;99.90
22185;DHT22;11258;52.516;13.318;2023-03-31T06:35:59;16.60;99.90
22185;DHT22;11258;52.516;13.318;2023-03-31T06:38:26;16.50;99.90
22185;DHT22;11258;52.516;13.318;2023-03-31T06:40:52;16.90;99.90
22185;DHT22;11258;52.516;13.318;2023-03-31T06:43:18;17.20;99.90
22185;DHT22;11258;52.516;13.318;2023-03-31T06:45:45;18.40;99.90
22185;DHT22;11258;52.516;13.318;2023-03-31T06:48:11;19.30;99.90
22185;DHT22;11258;52.516;13.318;2023-03-31T06:50:37;19.60;99.90
22185;DHT22;11258;52.516;13.318;2023-03-31T06:53:04;20.20;99.90
22185;DHT22;11258;52.516;13.318;2023-03-31T06:55:29;20.60;99.90
22185;DHT22;11258;52.516;13.318;2023-03-31T06:57:55;20.10;99.90
22185;DHT22;11258;52.516;13.318;2023-03-31T07:00:21;20.60;99.90
22185;DHT22;11258;52.516;13.318;2023-03-31T07:02:46;19.60;99.90
22185;DHT22;11258;52.516;13.318;2023-03-31T07:05:12;20.60;99.90
22185;DHT22;11258;52.516;13.318;2023-03-31T07:07:38;21.20;99.90
22185;DHT22;11258;52.516;13.318;2023-03-31T07:10:03;20.60;99.90
22185;DHT22;11258;52.516;13.318;2023-03-31T07:12:32;19.70;99.90
22185;DHT22;11258;52.516;13.318;2023-03-31T07:14:58;19.10;99.90
22185;DHT22;11258;52.516;13.318;2023-03-31T07:17:24;18.30;99.90
22185;DHT22;11258;52.516;13.318;2023-03-31T07:19:50;19.30;99.90
22185;DHT22;11258;52.516;13.318;2023-03-31T07:22:15;18.80;99.90
22185;DHT22;11258;52.516;13.318;2023-03-31T07:24:41;18.30;99.90
22185;DHT22;11258;52.516;13.318;2023-03-31T07:27:07;18.70;99.90
22185;DHT22;11258;52.516;13.318;2023-03-31T07:29:32;18.30;99.90
22185;DHT22;11258;52.516;13.318;2023-03-31T07:31:58;18.30;99.90
22185;DHT22;11258;52.516;13.318;2023-03-31T07:34:23;17.80;99.90
22185;DHT22;11258;52.516;13.318;2023-03-31T07:36:49;17.50;99.90
22185;DHT22;11258;52.516;13.318;2023-03-31T07:39:15;16.80;99.90
22185;DHT22;11258;52.516;13.318;2023-03-31T07:41:41;16.60;99.90
22185;DHT22;11258;52.516;13.318;2023-03-31T07:44:07;16.70;99.90
22185;DHT22;11258;52.516;13.318;2023-03-31T07:46:32;17.10;99.90
22185;DHT22;11258;52.516;13.318;2023-03-31T07:48:58;18.00;99.90
22185;DHT22;11258;52.516;13.318;2023-03-31T07:51:26;18.80;99.90
22185;DHT22;11258;52.516;13.318;2023-03-31T07:53:52;20.50;99.90
22185;DHT22;11258;52.516;13.318;2023-03-31T07:56:19;21.80;99.90
22185;DHT22;11258;52.516;13.318;2023-03-31T07:58:46;22.30;99.90
22185;DHT22;11258;52.516;13.318;2023-03-31T08:01:16;20.70;99.90
22185;DHT22;11258;52.516;13.318;2023-03-31T08:03:43;19.70;99.90
22185;DHT22;11258;52.516;13.318;2023-03-31T08:06:09;19.10;99.90
22185;DHT22;11258;52.516;13.318;2023-03-31T08:08:34;18.50;99.90
22185;DHT22;11258;52.516;13.318;2023-03-31T08:11:03;18.40;99.90
22185;DHT22;11258;52.516;13.318;2023-03-31T08:13:28;17.80;99.90
22185;DHT22;11258;52.516;13.318;2023-03-31T08:15:55;17.30;99.90
22185;DHT22;11258;52.516;13.318;2023-03-31T08:18:20;17.40;99.90
22185;DHT22;11258;52.516;13.318;2023-03-31T08:20:46;17.40;99.90
22185;DHT22;11258;52.516;13.318;2023-03-31T08:23:14;17.20;99.90
22185;DHT22;11258;52.516;13.318;2023-03-31T08:25:40;16.90;99.90
22185;DHT22;11258;52.516;13.318;2023-03-31T08:28:06;16.90;99.90
22185;DHT22;11258;52.516;13.318;2023-03-31T08:30:37;17.40;99.90
22185;DHT22;11258;52.516;13.318;2023-03-31T08:33:03;17.30;99.90
22185;DHT22;11258;52.516;13.318;2023-03-31T08:35:28;17.30;99.90
22185;DHT22;11258;52.516;13.318;2023-03-31T08:37:54;17.40;99.90
22185;DHT22;11258;52.516;13.318;2023-03-31T08:40:23;17.50;99.90
22185;DHT22;11258;52.516;13.318;2023-03-31T08:43:00;17.50;99.90
22185;DHT22;11258;52.516;13.318;2023-03-31T08:50:34;17.70;99.90
22185;DHT22;11258;52.516;13.318;2023-03-31T08:53:05;17.50;99.90
22185;DHT22;11258;52.516;13.318;2023-03-31T08:55:50;17.00;99.90
22185;DHT22;11258;52.516;13.318;2023-03-31T08:58:34;16.60;99.90
22185;DHT22;11258;52.516;13.318;2023-03-31T09:04:07;16.50;99.90
22185;DHT22;11258;52.516;13.318;2023-03-31T09:07:29;16.70;99.90
22185;DHT22;11258;52.516;13.318;2023-03-31T09:11:58;16.90;99.90
22185;DHT22;11258;52.516;13.318;2023-03-31T09:17:25;18.00;99.90
22185;DHT22;11258;52.516;13.318;2023-03-31T09:22:32;18.50;99.90
22185;DHT22;11258;52.516;13.318;2023-03-31T09:25:19;18.80;99.90
22185;DHT22;11258;52.516;13.318;2023-03-31T09:27:47;18.80;99.90
22185;DHT22;11258;52.516;13.318;2023-03-31T09:30:16;18.00;99.90
22185;DHT22;11258;52.516;13.318;2023-03-31T09:32:46;18.10;99.90
22185;DHT22;11258;52.516;13.318;2023-03-31T09:35:20;17.90;99.90
22185;DHT22;11258;52.516;13.318;2023-03-31T09:37:47;18.10;99.90
22185;DHT22;11258;52.516;13.318;2023-03-31T09:40:31;18.00;99.90
22185;DHT22;11258;52.516;13.318;2023-03-31T09:45:48;17.70;99.90
22185;DHT22;11258;52.516;13.318;2023-03-31T09:48:17;17.50;99.90
22185;DHT22;11258;52.516;13.318;2023-03-31T09:51:02;17.30;99.90
22185;DHT22;11258;52.516;13.318;2023-03-31T09:53:38;16.80;99.90
22185;DHT22;11258;52.516;13.318;2023-03-31T09:56:07;16.40;99.90
22185;DHT22;11258;52.516;13.318;2023-03-31T09:58:44;16.30;99.90
22185;DHT22;11258;52.516;13.318;2023-03-31T10:01:11;16.10;99.90
22185;DHT22;11258;52.516;13.318;2023-03-31T10:03:52;15.90;99.90
22185;DHT22;11258;52.516;13.318;2023-03-31T10:06:20;15.70;99.90
22185;DHT22;11258;52.516;13.318;2023-03-31T10:09:01;15.70;99.90
22185;DHT22;11258;52.516;13.318;2023-03-31T10:11:27;15.40;99.90
22185;DHT22;11258;52.516;13.318;2023-03-31T10:14:04;15.30;99.90
22185;DHT22;11258;52.516;13.318;2023-03-31T10:21:58;15.10;99.90
22185;DHT22;11258;52.516;13.318;2023-03-31T10:24:25;15.20;99.90
22185;DHT22;11258;52.516;13.318;2023-03-31T10:27:00;15.20;99.90
22185;DHT22;11258;52.516;13.318;2023-03-31T10:29:32;15.30;99.90
22185;DHT22;11258;52.516;13.318;2023-03-31T10:34:44;15.90;99.90
22185;DHT22;11258;52.516;13.318;2023-03-31T10:37:15;16.00;99.90
22185;DHT22;11258;52.516;13.318;2023-03-31T10:39:42;16.20;99.90
22185;DHT22;11258;52.516;13.318;2023-03-31T10:42:10;16.10;99.90
22185;DHT22;11258;52.516;13.318;2023-03-31T10:44:37;16.00;99.90
22185;DHT22;11258;52.516;13.318;2023-03-31T10:49:42;16.00;99.90
22185;DHT22;11258;52.516;13.318;2023-03-31T10:52:20;16.00;99.90
22185;DHT22;11258;52.516;13.318;2023-03-31T10:54:48;15.80;99.90
22185;DHT22;11258;52.516;13.318;2023-03-31T10:57:15;15.60;99.90
22185;DHT22;11258;52.516;13.318;2023-03-31T10:59:54;15.50;99.90
22185;DHT22;11258;52.516;13.318;2023-03-31T11:15:42;16.20;99.90
22185;DHT22;11258;52.516;13.318;2023-03-31T11:18:19;16.20;99.90
22185;DHT22;11258;52.516;13.318;2023-03-31T11:23:55;16.30;99.90
22185;DHT22;11258;52.516;13.318;2023-03-31T11:40:57;16.60;99.90
22185;DHT22;11258;52.516;13.318;2023-03-31T11:49:10;16.40;99.90
22185;DHT22;11258;52.516;13.318;2023-03-31T11:57:15;16.20;99.90
22185;DHT22;11258;52.516;13.318;2023-03-31T11:59:48;15.90;99.90
22185;DHT22;11258;52.516;13.318;2023-03-31T12:02:31;15.90;99.90
22185;DHT22;11258;52.516;13.318;2023-03-31T12:04:59;15.90;99.90
22185;DHT22;11258;52.516;13.318;2023-03-31T12:07:35;15.70;99.90
22185;DHT22;11258;52.516;13.318;2023-03-31T12:15:40;15.20;99.90
22185;DHT22;11258;52.516;13.318;2023-03-31T12:18:13;15.10;99.90
22185;DHT22;11258;52.516;13.318;2023-03-31T12:20:43;15.10;99.90
22185;DHT22;11258;52.516;13.318;2023-03-31T12:23:23;15.20;99.90
22185;DHT22;11258;52.516;13.318;2023-03-31T12:29:31;15.20;99.90
22185;DHT22;11258;52.516;13.318;2023-03-31T12:32:02;15.50;99.90
22185;DHT22;11258;52.516;13.318;2023-03-31T12:34:30;15.60;99.90
22185;DHT22;11258;52.516;13.318;2023-03-31T12:37:16;15.70;99.90
22185;DHT22;11258;52.516;13.318;2023-03-31T12:45:27;15.60;99.90
22185;DHT22;11258;52.516;13.318;2023-03-31T12:50:33;15.60;99.90
22185;DHT22;11258;52.516;13.318;2023-03-31T12:56:06;15.20;99.90
22185;DHT22;11258;52.516;13.318;2023-03-31T12:58:40;14.90;99.90
22185;DHT22;11258;52.516;13.318;2023-03-31T13:08:58;13.60;99.90
22185;DHT22;11258;52.516;13.318;2023-03-31T13:14:16;13.60;99.90
22185;DHT22;11258;52.516;13.318;2023-03-31T13:16:44;13.70;99.90
22185;DHT22;11258;52.516;13.318;2023-03-31T13:19:23;13.50;99.90
22185;DHT22;11258;52.516;13.318;2023-03-31T13:21:56;13.50;99.90
22185;DHT22;11258;52.516;13.318;2023-03-31T13:24:24;13.50;99.90
22185;DHT22;11258;52.516;13.318;2023-03-31T13:26:50;13.50;99.90
22185;DHT22;11258;52.516;13.318;2023-03-31T13:29:23;13.40;99.90
22185;DHT22;11258;52.516;13.318;2023-03-31T13:34:26;13.50;99.90
22185;DHT22;11258;52.516;13.318;2023-03-31T13:49:06;13.60;99.90
22185;DHT22;11258;52.516;13.318;2023-03-31T13:52:08;13.50;99.90
22185;DHT22;11258;52.516;13.318;2023-03-31T14:02:41;12.80;99.90
22185;DHT22;11258;52.516;13.318;2023-03-31T14:08:16;13.00;99.90
22185;DHT22;11258;52.516;13.318;2023-03-31T14:10:44;12.90;99.90
22185;DHT22;11258;52.516;13.318;2023-03-31T14:13:14;12.50;99.90
22185;DHT22;11258;52.516;13.318;2023-03-31T14:15:52;12.70;99.90
22185;DHT22;11258;52.516;13.318;2023-03-31T14:18:31;12.50;99.90
22185;DHT22;11258;52.516;13.318;2023-03-31T14:26:48;12.60;99.90
22185;DHT22;11258;52.516;13.318;2023-03-31T14:29:21;12.50;99.90
22185;DHT22;11258;52.516;13.318;2023-03-31T14:34:34;12.60;99.90
22185;DHT22;11258;52.516;13.318;2023-03-31T14:37:06;12.50;99.90
22185;DHT22;11258;52.516;13.318;2023-03-31T14:39:43;12.40;99.90
22185;DHT22;11258;52.516;13.318;2023-03-31T14:42:40;12.40;99.90
22185;DHT22;11258;52.516;13.318;2023-03-31T14:45:17;12.40;99.90
22185;DHT22;11258;52.516;13.318;2023-03-31T14:47:56;12.60;99.90
22185;DHT22;11258;52.516;13.318;2023-03-31T14:50:28;12.50;99.90
22185;DHT22;11258;52.516;13.318;2023-03-31T14:52:55;12.50;99.90
22185;DHT22;11258;52.516;13.318;2023-03-31T14:55:23;12.60;99.90
22185;DHT22;11258;52.516;13.318;2023-03-31T14:57:51;12.60;99.90
22185;DHT22;11258;52.516;13.318;2023-03-31T15:00:26;12.60;99.90
22185;DHT22;11258;52.516;13.318;2023-03-31T15:02:53;12.60;99.90
22185;DHT22;11258;52.516;13.318;2023-03-31T15:05:34;12.50;99.90
22185;DHT22;11258;52.516;13.318;2023-03-31T15:08:06;12.70;99.90
22185;DHT22;11258;52.516;13.318;2023-03-31T15:10:35;12.70;99.90
22185;DHT22;11258;52.516;13.318;2023-03-31T15:13:07;12.40;99.90
22185;DHT22;11258;52.516;13.318;2023-03-31T15:15:34;12.20;99.90
22185;DHT22;11258;52.516;13.318;2023-03-31T15:18:00;12.40;99.90
22185;DHT22;11258;52.516;13.318;2023-03-31T15:20:27;12.20;99.90
22185;DHT22;11258;52.516;13.318;2023-03-31T15:22:57;12.30;99.90
22185;DHT22;11258;52.516;13.318;2023-03-31T15:25:28;12.40;99.90
22185;DHT22;11258;52.516;13.318;2023-03-31T15:28:08;12.40;99.90
22185;DHT22;11258;52.516;13.318;2023-03-31T15:30:35;12.50;99.90
22185;DHT22;11258;52.516;13.318;2023-03-31T15:33:04;12.60;99.90
22185;DHT22;11258;52.516;13.318;2023-03-31T15:35:34;12.30;99.90
22185;DHT22;11258;52.516;13.318;2023-03-31T15:38:02;12.20;99.90
22185;DHT22;11258;52.516;13.318;2023-03-31T15:40:31;12.20;99.90
22185;DHT22;11258;52.516;13.318;2023-03-31T15:50:58;12.50;99.90
22185;DHT22;11258;52.516;13.318;2023-03-31T15:53:33;12.70;99.90
22185;DHT22;11258;52.516;13.318;2023-03-31T15:56:00;12.60;99.90
22185;DHT22;11258;52.516;13.318;2023-03-31T15:58:54;12.60;99.90
22185;DHT22;11258;52.516;13.318;2023-03-31T16:01:22;12.70;99.90
22185;DHT22;11258;52.516;13.318;2023-03-31T16:03:51;12.70;99.90
22185;DHT22;11258;52.516;13.318;2023-03-31T16:09:19;12.70;99.90
22185;DHT22;11258;52.516;13.318;2023-03-31T16:11:53;12.70;99.90
22185;DHT22;11258;52.516;13.318;2023-03-31T16:16:52;12.50;99.90
22185;DHT22;11258;52.516;13.318;2023-03-31T16:19:19;12.40;99.90
22185;DHT22;11258;52.516;13.318;2023-03-31T16:21:48;12.50;99.90
22185;DHT22;11258;52.516;13.318;2023-03-31T16:24:20;12.60;99.90
22185;DHT22;11258;52.516;13.318;2023-03-31T16:26:48;12.70;99.90
22185;DHT22;11258;52.516;13.318;2023-03-31T16:29:20;12.70;99.90
22185;DHT22;11258;52.516;13.318;2023-03-31T16:31:47;12.70;99.90
22185;DHT22;11258;52.516;13.318;2023-03-31T16:34:13;12.70;99.90
22185;DHT22;11258;52.516;13.318;2023-03-31T16:36:38;12.50;99.90
22185;DHT22;11258;52.516;13.318;2023-03-31T16:39:05;12.60;99.90
22185;DHT22;11258;52.516;13.318;2023-03-31T16:41:35;12.40;99.90
22185;DHT22;11258;52.516;13.318;2023-03-31T16:44:02;12.50;99.90
22185;DHT22;11258;52.516;13.318;2023-03-31T16:46:28;12.50;99.90
22185;DHT22;11258;52.516;13.318;2023-03-31T16:48:54;12.40;99.90
22185;DHT22;11258;52.516;13.318;2023-03-31T16:51:20;12.40;99.90
22185;DHT22;11258;52.516;13.318;2023-03-31T16:53:46;12.40;99.90
22185;DHT22;11258;52.516;13.318;2023-03-31T16:56:12;12.50;99.90
22185;DHT22;11258;52.516;13.318;2023-03-31T16:58:39;12.40;99.90
22185;DHT22;11258;52.516;13.318;2023-03-31T17:01:06;12.30;99.90
22185;DHT22;11258;52.516;13.318;2023-03-31T17:03:32;12.30;99.90
22185;DHT22;11258;52.516;13.318;2023-03-31T17:06:08;12.30;99.90
22185;DHT22;11258;52.516;13.318;2023-03-31T17:08:34;12.40;99.90
22185;DHT22;11258;52.516;13.318;2023-03-31T17:11:12;12.30;99.90
22185;DHT22;11258;52.516;13.318;2023-03-31T17:13:40;12.20;99.90
22185;DHT22;11258;52.516;13.318;2023-03-31T17:16:07;12.20;99.90
22185;DHT22;11258;52.516;13.318;2023-03-31T17:18:33;12.10;99.90
22185;DHT22;11258;52.516;13.318;2023-03-31T17:21:06;12.20;99.90
22185;DHT22;11258;52.516;13.318;2023-03-31T17:23:33;12.10;99.90
22185;DHT22;11258;52.516;13.318;2023-03-31T17:26:00;12.10;99.90
22185;DHT22;11258;52.516;13.318;2023-03-31T17:28:26;12.20;99.90
22185;DHT22;11258;52.516;13.318;2023-03-31T17:30:53;12.10;99.90
22185;DHT22;11258;52.516;13.318;2023-03-31T17:33:19;12.10;99.90
22185;DHT22;11258;52.516;13.318;2023-03-31T17:35:46;12.10;99.90
22185;DHT22;11258;52.516;13.318;2023-03-31T17:38:12;12.20;99.90
22185;DHT22;11258;52.516;13.318;2023-03-31T17:40:39;12.10;99.90
22185;DHT22;11258;52.516;13.318;2023-03-31T17:43:05;12.10;99.90
22185;DHT22;11258;52.516;13.318;2023-03-31T17:45:31;12.10;99.90
22185;DHT22;11258;52.516;13.318;2023-03-31T17:47:58;12.20;99.90
22185;DHT22;11258;52.516;13.318;2023-03-31T17:50:24;12.10;99.90
22185;DHT22;11258;52.516;13.318;2023-03-31T17:52:50;12.20;99.90
22185;DHT22;11258;52.516;13.318;2023-03-31T17:55:16;12.20;99.90
22185;DHT22;11258;52.516;13.318;2023-03-31T17:57:43;12.20;99.90
22185;DHT22;11258;52.516;13.318;2023-03-31T18:00:09;12.10;99.90
22185;DHT22;11258;52.516;13.318;2023-03-31T18:02:42;12.10;99.90
22185;DHT22;11258;52.516;13.318;2023-03-31T18:05:08;12.10;99.90
22185;DHT22;11258;52.516;13.318;2023-03-31T18:07:35;12.10;99.90
22185;DHT22;11258;52.516;13.318;2023-03-31T18:10:04;12.10;99.90
22185;DHT22;11258;52.516;13.318;2023-03-31T18:12:31;12.10;99.90
22185;DHT22;11258;52.516;13.318;2023-03-31T18:14:57;12.00;99.90
22185;DHT22;11258;52.516;13.318;2023-03-31T18:17:23;12.00;99.90
22185;DHT22;11258;52.516;13.318;2023-03-31T18:19:49;12.00;99.90
22185;DHT22;11258;52.516;13.318;2023-03-31T18:22:14;12.10;99.90
22185;DHT22;11258;52.516;13.318;2023-03-31T18:24:40;12.00;99.90
22185;DHT22;11258;52.516;13.318;2023-03-31T18:27:06;12.00;99.90
22185;DHT22;11258;52.516;13.318;2023-03-31T18:29:32;12.10;99.90
22185;DHT22;11258;52.516;13.318;2023-03-31T18:31:57;12.00;99.90
22185;DHT22;11258;52.516;13.318;2023-03-31T18:34:23;12.00;99.90
22185;DHT22;11258;52.516;13.318;2023-03-31T18:36:49;12.00;99.90
22185;DHT22;11258;52.516;13.318;2023-03-31T18:39:14;12.00;99.90